Time;durP1;ratioP1;P1;durP2;ratioP2;P2;SDS_P1;SDS_P2;PMS_P1;PMS_P2;Temp;Humidity;BMP_temperature;BMP_pressure;BME280_temperature;BME280_humidity;BME280_pressure;Samples;Min_cycle;Max_cycle;Signal;HPM_P1;HPM_P2
2022/05/29 00:01:02;;;;;;;1999.90;999.90;;;9.50;99.90;;;;;;5047312;28;20044;-81
2022/05/29 00:03:28;;;;;;;1999.90;999.90;;;9.50;99.90;;;;;;5052722;28;20071;-81
2022/05/29 00:05:54;;;;;;;1999.90;999.90;;;9.50;99.90;;;;;;5070621;28;20048;-81
2022/05/29 00:08:29;;;;;;;1999.90;999.90;;;9.50;99.90;;;;;;5054215;28;20128;-81
2022/05/29 00:10:56;;;;;;;1999.90;999.90;;;9.50;99.90;;;;;;5050245;28;20433;-81
2022/05/29 00:13:22;;;;;;;1999.90;999.90;;;9.50;99.90;;;;;;5039714;28;20390;-81
2022/05/29 00:15:48;;;;;;;1999.90;999.90;;;9.40;99.90;;;;;;5062890;28;20052;-81
2022/05/29 00:18:14;;;;;;;1999.90;999.90;;;9.30;99.90;;;;;;5062653;28;20117;-81
2022/05/29 00:20:40;;;;;;;1999.90;999.90;;;9.30;99.90;;;;;;5065716;28;20090;-80
2022/05/29 00:23:06;;;;;;;1999.90;999.90;;;9.20;99.90;;;;;;5053532;28;20409;-80
2022/05/29 00:25:32;;;;;;;1999.90;999.90;;;9.20;99.90;;;;;;5044600;28;20041;-80
2022/05/29 00:27:58;;;;;;;1999.90;999.90;;;9.20;99.90;;;;;;5042647;28;20508;-81
2022/05/29 00:30:24;;;;;;;1999.90;999.90;;;9.30;99.90;;;;;;5054776;28;20036;-81
2022/05/29 00:32:49;;;;;;;1999.90;999.90;;;9.30;99.90;;;;;;5059061;28;20129;-80
2022/05/29 00:35:15;;;;;;;1999.90;999.90;;;9.30;99.90;;;;;;5046715;28;20041;-79
2022/05/29 00:37:41;;;;;;;1999.90;999.90;;;9.40;99.90;;;;;;5086402;28;20067;-81
2022/05/29 00:40:25;;;;;;;1999.90;999.90;;;9.50;99.90;;;;;;5074068;28;20032;-80
2022/05/29 00:42:51;;;;;;;1999.90;999.90;;;9.40;99.90;;;;;;5043630;28;20394;-80
2022/05/29 00:45:20;;;;;;;1999.90;999.90;;;9.50;99.90;;;;;;5071535;28;20093;-80
2022/05/29 00:47:46;;;;;;;1999.90;999.90;;;9.50;99.90;;;;;;5061197;28;20044;-80
2022/05/29 00:50:12;;;;;;;1999.90;999.90;;;9.40;99.90;;;;;;5058343;28;20046;-80
2022/05/29 00:52:38;;;;;;;1999.90;999.90;;;9.50;99.90;;;;;;5057379;28;20131;-81
2022/05/29 00:55:11;;;;;;;1999.90;999.90;;;9.50;99.90;;;;;;5043620;28;20044;-80
2022/05/29 00:57:44;;;;;;;1999.90;999.90;;;9.50;99.90;;;;;;5065249;28;20037;-80
2022/05/29 01:00:22;;;;;;;1999.90;999.90;;;9.40;99.90;;;;;;5084924;28;20043;-80
2022/05/29 01:02:48;;;;;;;1999.90;999.90;;;9.40;99.90;;;;;;5060263;28;20056;-80
2022/05/29 01:05:17;;;;;;;1999.90;999.90;;;9.40;99.90;;;;;;5059417;28;20036;-81
2022/05/29 01:07:46;;;;;;;1999.90;999.90;;;9.40;99.90;;;;;;5057884;28;20127;-80
2022/05/29 01:10:12;;;;;;;1999.90;999.90;;;9.40;99.90;;;;;;5073471;28;20076;-80
2022/05/29 01:12:52;;;;;;;1999.90;999.90;;;9.40;99.90;;;;;;5077510;28;20584;-80
2022/05/29 01:15:37;;;;;;;1999.90;999.90;;;9.40;99.90;;;;;;5072125;28;20682;-81
2022/05/29 01:18:22;;;;;;;1999.90;999.90;;;9.40;99.90;;;;;;5076653;28;20040;-81
2022/05/29 01:21:15;;;;;;;1999.90;999.90;;;9.50;99.90;;;;;;5068060;28;20044;-80
2022/05/29 01:23:55;;;;;;;1999.90;999.90;;;9.50;99.90;;;;;;5049127;28;20068;-80
2022/05/29 01:26:39;;;;;;;1999.90;999.90;;;9.50;99.90;;;;;;5073327;28;20048;-80
2022/05/29 01:29:07;;;;;;;1999.90;999.90;;;9.40;99.90;;;;;;5069998;28;20037;-80
2022/05/29 01:31:50;;;;;;;1999.90;999.90;;;9.50;99.90;;;;;;5071656;28;20036;-80
2022/05/29 01:34:35;;;;;;;1999.90;999.90;;;9.40;99.90;;;;;;5067231;28;20048;-80
2022/05/29 01:37:27;;;;;;;1999.90;999.90;;;9.50;99.90;;;;;;5069988;28;20466;-80
2022/05/29 01:40:06;;;;;;;1999.90;999.90;;;9.50;99.90;;;;;;5077149;28;20112;-80
2022/05/29 01:42:45;;;;;;;1999.90;999.90;;;9.50;99.90;;;;;;5067789;28;20047;-80
2022/05/29 01:45:25;;;;;;;1999.90;999.90;;;9.50;99.90;;;;;;5056282;28;20035;-80
2022/05/29 01:47:58;;;;;;;1999.90;999.90;;;9.50;99.90;;;;;;5062188;28;20043;-80
2022/05/29 01:50:37;;;;;;;1999.90;999.90;;;9.50;99.90;;;;;;5084401;28;20065;-80
2022/05/29 01:53:13;;;;;;;1999.90;999.90;;;9.50;99.90;;;;;;5040048;28;20464;-80
2022/05/29 01:55:48;;;;;;;1999.90;999.90;;;9.50;99.90;;;;;;5054355;28;20077;-80
2022/05/29 01:58:19;;;;;;;1999.90;999.90;;;9.50;99.90;;;;;;5064124;28;20051;-80
2022/05/29 02:00:47;;;;;;;1999.90;999.90;;;9.50;99.90;;;;;;5066425;28;20040;-80
2022/05/29 02:03:25;;;;;;;1999.90;999.90;;;9.50;99.90;;;;;;5085186;28;20568;-79
2022/05/29 02:05:55;;;;;;;1999.90;999.90;;;9.50;99.90;;;;;;5085334;28;20036;-80
2022/05/29 02:08:27;;;;;;;1999.90;999.90;;;9.50;99.90;;;;;;5052505;28;20050;-79
2022/05/29 02:10:57;;;;;;;1999.90;999.90;;;9.50;99.90;;;;;;5041923;28;20036;-79
2022/05/29 02:13:33;;;;;;;1999.90;999.90;;;9.50;99.90;;;;;;5066677;28;20039;-80
2022/05/29 02:16:04;;;;;;;1999.90;999.90;;;9.50;99.90;;;;;;5057908;28;20051;-80
2022/05/29 02:18:52;;;;;;;1999.90;999.90;;;9.50;99.90;;;;;;5072689;28;20410;-80
2022/05/29 02:21:24;;;;;;;1999.90;999.90;;;9.50;99.90;;;;;;5095662;28;20054;-80
2022/05/29 02:23:53;;;;;;;1999.90;999.90;;;9.60;99.90;;;;;;5055081;28;20074;-80
2022/05/29 02:26:23;;;;;;;1999.90;999.90;;;9.50;99.90;;;;;;5042041;28;20035;-80
2022/05/29 02:28:57;;;;;;;1999.90;999.90;;;9.60;99.90;;;;;;5054228;28;20036;-80
2022/05/29 02:31:54;;;;;;;1999.90;999.90;;;9.50;99.90;;;;;;5065389;28;20072;-80
2022/05/29 02:34:35;;;;;;;1999.90;999.90;;;9.60;99.90;;;;;;5029239;28;20406;-80
2022/05/29 02:37:23;;;;;;;1999.90;999.90;;;9.60;99.90;;;;;;5065969;28;20043;-80
2022/05/29 02:40:15;;;;;;;1999.90;999.90;;;9.60;99.90;;;;;;5071069;28;20133;-80
2022/05/29 02:43:06;;;;;;;1999.90;999.90;;;9.60;99.90;;;;;;5068661;28;20169;-80
2022/05/29 02:45:51;;;;;;;1999.90;999.90;;;9.60;99.90;;;;;;5077004;28;20044;-81
2022/05/29 02:48:39;;;;;;;1999.90;999.90;;;9.70;99.90;;;;;;5051871;28;21699;-80
2022/05/29 02:51:32;;;;;;;1999.90;999.90;;;9.70;99.90;;;;;;5067143;28;20415;-80
2022/05/29 02:53:58;;;;;;;1999.90;999.90;;;9.70;99.90;;;;;;5053464;28;20038;-79
2022/05/29 02:56:23;;;;;;;1999.90;999.90;;;9.70;99.90;;;;;;5050972;28;20480;-80
2022/05/29 02:58:52;;;;;;;1999.90;999.90;;;9.70;99.90;;;;;;5072709;28;20386;-80
2022/05/29 03:01:44;;;;;;;1999.90;999.90;;;9.60;99.90;;;;;;5058958;28;20568;-80
2022/05/29 03:04:37;;;;;;;1999.90;999.90;;;9.60;99.90;;;;;;5057739;28;20549;-81
2022/05/29 03:07:03;;;;;;;1999.90;999.90;;;9.60;99.90;;;;;;5066045;28;20404;-81
2022/05/29 03:09:47;;;;;;;1999.90;999.90;;;9.60;99.90;;;;;;5064679;28;20051;-80
2022/05/29 03:12:25;;;;;;;1999.90;999.90;;;9.50;99.90;;;;;;5075819;28;20035;-80
2022/05/29 03:14:59;;;;;;;1999.90;999.90;;;9.50;99.90;;;;;;5056135;28;20054;-80
2022/05/29 03:17:45;;;;;;;1999.90;999.90;;;9.50;99.90;;;;;;5054604;28;20052;-80
2022/05/29 03:20:32;;;;;;;1999.90;999.90;;;9.50;99.90;;;;;;5044784;28;20044;-81
2022/05/29 03:23:15;;;;;;;1999.90;999.90;;;9.40;99.90;;;;;;5068738;28;20050;-80
2022/05/29 03:25:42;;;;;;;1999.90;999.90;;;9.40;99.90;;;;;;5070613;28;20492;-81
2022/05/29 03:28:19;;;;;;;1999.90;999.90;;;9.40;99.90;;;;;;5073028;28;20035;-81
2022/05/29 03:30:46;;;;;;;1999.90;999.90;;;9.40;99.90;;;;;;5054087;28;20067;-80
2022/05/29 03:33:14;;;;;;;1999.90;999.90;;;9.40;99.90;;;;;;5039284;28;20040;-81
2022/05/29 03:35:52;;;;;;;1999.90;999.90;;;9.40;99.90;;;;;;5069192;28;20048;-81
2022/05/29 03:38:18;;;;;;;1999.90;999.90;;;9.40;99.90;;;;;;5069080;28;20046;-81
2022/05/29 03:40:45;;;;;;;1999.90;999.90;;;9.50;99.90;;;;;;5054241;28;20170;-80
2022/05/29 03:43:10;;;;;;;1999.90;999.90;;;9.50;99.90;;;;;;5069797;28;20040;-80
2022/05/29 03:45:36;;;;;;;1999.90;999.90;;;9.50;99.90;;;;;;5042956;28;20036;-80
2022/05/29 03:48:02;;;;;;;1999.90;999.90;;;9.50;99.90;;;;;;5060773;28;20076;-80
2022/05/29 03:50:28;;;;;;;1999.90;999.90;;;9.50;99.90;;;;;;5044161;28;20036;-80
2022/05/29 03:52:54;;;;;;;1999.90;999.90;;;9.50;99.90;;;;;;5067979;28;20043;-80
2022/05/29 03:55:22;;;;;;;1999.90;999.90;;;9.50;99.90;;;;;;5065943;28;20040;-79
2022/05/29 03:57:49;;;;;;;1999.90;999.90;;;9.60;99.90;;;;;;5067136;28;20049;-80
2022/05/29 04:00:15;;;;;;;1999.90;999.90;;;9.60;99.90;;;;;;5038740;28;20087;-80
2022/05/29 04:02:41;;;;;;;1999.90;999.90;;;9.60;99.90;;;;;;5052169;28;20039;-80
2022/05/29 04:05:13;;;;;;;1999.90;999.90;;;9.60;99.90;;;;;;5072417;28;20040;-80
2022/05/29 04:13:10;;;;;;;1999.90;999.90;;;9.60;99.90;;;;;;5057845;28;20041;-80
2022/05/29 04:15:36;;;;;;;1999.90;999.90;;;9.60;99.90;;;;;;5055048;28;20471;-79
2022/05/29 04:18:03;;;;;;;1999.90;999.90;;;9.60;99.90;;;;;;5064293;28;20526;-80
2022/05/29 04:20:29;;;;;;;1999.90;999.90;;;9.60;99.90;;;;;;5065533;28;20055;-80
2022/05/29 04:22:54;;;;;;;1999.90;999.90;;;9.60;99.90;;;;;;5041062;28;20036;-80
2022/05/29 04:25:20;;;;;;;1999.90;999.90;;;9.60;99.90;;;;;;5066252;28;20122;-80
2022/05/29 04:27:46;;;;;;;1999.90;999.90;;;9.60;99.90;;;;;;5069704;28;20035;-80
2022/05/29 04:30:12;;;;;;;1999.90;999.90;;;9.60;99.90;;;;;;5045461;28;20043;-80
2022/05/29 04:35:39;;;;;;;1999.90;999.90;;;9.60;99.90;;;;;;5010918;28;20073;-80
2022/05/29 04:38:05;;;;;;;1999.90;999.90;;;9.60;99.90;;;;;;4994213;28;20116;-80
2022/05/29 04:40:31;;;;;;;1999.90;999.90;;;9.70;99.90;;;;;;5020694;28;20139;-80
2022/05/29 04:42:57;;;;;;;1999.90;999.90;;;9.70;99.90;;;;;;5011749;28;20041;-80
2022/05/29 04:45:23;;;;;;;1999.90;999.90;;;9.70;99.90;;;;;;5008392;28;20140;-80
2022/05/29 04:47:48;;;;;;;1999.90;999.90;;;9.70;99.90;;;;;;5019569;28;20223;-80
2022/05/29 04:50:14;;;;;;;1999.90;999.90;;;9.70;99.90;;;;;;5013839;28;20257;-80
2022/05/29 04:52:40;;;;;;;1999.90;999.90;;;9.70;99.90;;;;;;5029167;28;20454;-81
2022/05/29 04:55:08;;;;;;;1999.90;999.90;;;9.70;99.90;;;;;;5009427;28;20045;-80
2022/05/29 04:57:33;;;;;;;1999.90;999.90;;;9.70;99.90;;;;;;5018728;28;20435;-81
2022/05/29 04:59:59;;;;;;;1999.90;999.90;;;9.70;99.90;;;;;;5017547;28;20058;-80
2022/05/29 05:02:25;;;;;;;1999.90;999.90;;;9.80;99.90;;;;;;4993556;28;20499;-80
2022/05/29 05:05:15;;;;;;;1999.90;999.90;;;9.80;99.90;;;;;;4963333;28;20054;-80
2022/05/29 05:07:41;;;;;;;1999.90;999.90;;;9.90;99.90;;;;;;4951280;28;20462;-81
2022/05/29 05:10:12;;;;;;;1999.90;999.90;;;9.90;99.90;;;;;;4949818;28;20050;-81
2022/05/29 05:12:39;;;;;;;1999.90;999.90;;;9.90;99.90;;;;;;5003940;28;20047;-80
2022/05/29 05:15:05;;;;;;;1999.90;999.90;;;9.90;99.90;;;;;;4997146;28;20049;-80
2022/05/29 05:17:31;;;;;;;1999.90;999.90;;;10.00;99.90;;;;;;4968918;28;20078;-81
2022/05/29 05:19:56;;;;;;;1999.90;999.90;;;10.00;99.90;;;;;;4979726;28;20491;-81
2022/05/29 05:22:22;;;;;;;1999.90;999.90;;;10.10;99.90;;;;;;4986977;28;20541;-80
2022/05/29 05:24:48;;;;;;;1999.90;999.90;;;10.10;99.90;;;;;;4975697;28;20099;-80
2022/05/29 05:27:23;;;;;;;1999.90;999.90;;;10.10;99.90;;;;;;4992644;28;20041;-80
2022/05/29 05:29:51;;;;;;;1999.90;999.90;;;10.10;99.90;;;;;;4999536;28;20046;-79
2022/05/29 05:32:16;;;;;;;1999.90;999.90;;;10.10;99.90;;;;;;4998365;28;20039;-80
2022/05/29 05:34:42;;;;;;;1999.90;999.90;;;10.10;99.90;;;;;;4995474;28;20403;-78
2022/05/29 05:37:12;;;;;;;1999.90;999.90;;;10.10;99.90;;;;;;5004694;28;20042;-79
2022/05/29 05:39:38;;;;;;;1999.90;999.90;;;10.20;99.90;;;;;;5004046;28;20488;-80
2022/05/29 05:42:07;;;;;;;1999.90;999.90;;;10.10;99.90;;;;;;5020048;28;20059;-80
2022/05/29 05:44:48;;;;;;;1999.90;999.90;;;10.20;99.90;;;;;;5021345;28;20041;-80
2022/05/29 05:47:14;;;;;;;1999.90;999.90;;;10.20;99.90;;;;;;4999318;28;20060;-79
2022/05/29 05:49:45;;;;;;;1999.90;999.90;;;10.20;99.90;;;;;;4987686;28;20478;-80
2022/05/29 05:52:10;;;;;;;1999.90;999.90;;;10.10;99.90;;;;;;5011478;28;20088;-80
2022/05/29 05:54:36;;;;;;;1999.90;999.90;;;10.20;99.90;;;;;;5008192;28;20046;-80
2022/05/29 05:57:06;;;;;;;1999.90;999.90;;;10.20;99.90;;;;;;5007387;28;20050;-80
2022/05/29 05:59:33;;;;;;;1999.90;999.90;;;10.20;99.90;;;;;;4994215;28;20045;-80
2022/05/29 06:02:01;;;;;;;1999.90;999.90;;;10.10;99.90;;;;;;4984108;28;20057;-81
2022/05/29 06:04:47;;;;;;;1999.90;999.90;;;10.10;99.90;;;;;;5005091;28;20870;-80
2022/05/29 06:07:15;;;;;;;1999.90;999.90;;;10.10;99.90;;;;;;4948239;28;20050;-80
2022/05/29 06:10:02;;;;;;;1999.90;999.90;;;10.10;99.90;;;;;;4952677;28;20548;-80
2022/05/29 06:12:28;;;;;;;1999.90;999.90;;;10.10;99.90;;;;;;4963023;28;20125;-80
2022/05/29 06:14:54;;;;;;;1999.90;999.90;;;10.10;99.90;;;;;;4950721;28;20063;-80
2022/05/29 06:17:20;;;;;;;1999.90;999.90;;;10.20;99.90;;;;;;4963323;28;20066;-80
2022/05/29 06:19:46;;;;;;;1999.90;999.90;;;10.30;99.90;;;;;;4933321;29;20047;-80
2022/05/29 06:22:11;;;;;;;1999.90;999.90;;;10.30;99.90;;;;;;4945008;28;20061;-80
2022/05/29 06:24:37;;;;;;;1999.90;999.90;;;10.30;99.90;;;;;;4967944;28;20094;-80
2022/05/29 06:27:04;;;;;;;1999.90;999.90;;;10.30;99.90;;;;;;4949826;28;20054;-80
2022/05/29 06:29:30;;;;;;;1999.90;999.90;;;10.20;99.90;;;;;;4964797;28;20115;-81
2022/05/29 06:32:03;;;;;;;1999.90;999.90;;;10.20;99.90;;;;;;4953317;28;20050;-80
2022/05/29 06:34:30;;;;;;;1999.90;999.90;;;10.20;99.90;;;;;;4968445;28;20129;-80
2022/05/29 06:36:56;;;;;;;1999.90;999.90;;;10.20;99.90;;;;;;4972797;28;20125;-80
2022/05/29 06:42:08;;;;;;;1999.90;999.90;;;10.20;99.90;;;;;;4911937;29;20047;-80
2022/05/29 06:44:40;;;;;;;1999.90;999.90;;;10.30;99.90;;;;;;4904567;29;20604;-81
2022/05/29 06:47:10;;;;;;;1999.90;999.90;;;10.30;99.90;;;;;;4930828;29;20043;-80
2022/05/29 06:49:36;;;;;;;1999.90;999.90;;;10.40;99.90;;;;;;4952352;28;20050;-80
2022/05/29 06:52:10;;;;;;;1999.90;999.90;;;10.50;99.90;;;;;;4973632;28;20034;-80
2022/05/29 06:54:37;;;;;;;1999.90;999.90;;;10.60;99.90;;;;;;4998267;28;20054;-80
2022/05/29 06:57:06;;;;;;;1999.90;999.90;;;10.60;99.90;;;;;;4987133;28;20183;-80
2022/05/29 07:06:58;;;;;;;1999.90;999.90;;;10.60;99.90;;;;;;5002541;28;20405;-81
2022/05/29 07:08:05;;;;;;;1999.90;999.90;;;10.60;99.90;;;;;;4976478;28;20054;-81
2022/05/29 07:10:32;;;;;;;1999.90;999.90;;;10.60;99.90;;;;;;4991826;28;20042;-81
2022/05/29 07:13:05;;;;;;;1999.90;999.90;;;10.60;99.90;;;;;;4970212;28;20190;-81
2022/05/29 07:15:31;;;;;;;;;;;10.70;99.90;;;;;;4986250;28;20096;-80
2022/05/29 07:17:56;;;;;;;1999.90;999.90;;;10.70;99.90;;;;;;4981400;28;19969;-80
2022/05/29 07:20:22;;;;;;;1999.90;999.90;;;10.80;99.90;;;;;;5053165;28;20055;-81
2022/05/29 07:22:48;;;;;;;1999.90;999.90;;;10.80;99.90;;;;;;5043342;28;20493;-80
2022/05/29 07:25:13;;;;;;;1999.90;999.90;;;10.80;99.90;;;;;;5070452;28;20097;-79
2022/05/29 07:27:39;;;;;;;1999.90;999.90;;;10.70;99.90;;;;;;5075540;28;20146;-80
2022/05/29 07:30:06;;;;;;;1999.90;999.90;;;10.60;99.90;;;;;;5062771;28;20028;-80
2022/05/29 07:32:32;;;;;;;1999.90;999.90;;;10.60;99.90;;;;;;5053983;28;20044;-80
2022/05/29 07:34:58;;;;;;;1999.90;999.90;;;10.60;99.90;;;;;;5057338;28;20044;-80
2022/05/29 07:37:24;;;;;;;1999.90;999.90;;;10.50;99.90;;;;;;5056155;28;20135;-80
2022/05/29 07:39:52;;;;;;;1999.90;999.90;;;10.40;99.90;;;;;;5047255;28;20468;-80
2022/05/29 07:45:05;;;;;;;1999.90;999.90;;;10.30;99.90;;;;;;5057869;28;20058;-79
2022/05/29 07:47:37;;;;;;;1999.90;999.90;;;10.30;99.90;;;;;;5061098;28;20081;-79
2022/05/29 07:50:03;;;;;;;1999.90;999.90;;;10.30;99.90;;;;;;5067194;28;20043;-80
2022/05/29 07:52:29;;;;;;;1999.90;999.90;;;10.30;99.90;;;;;;5083350;28;20047;-80
2022/05/29 07:54:54;;;;;;;1999.90;999.90;;;10.40;99.90;;;;;;5052538;28;20495;-81
2022/05/29 07:57:20;;;;;;;1999.90;999.90;;;10.40;99.90;;;;;;5080996;28;20032;-80
2022/05/29 07:59:46;;;;;;;1999.90;999.90;;;10.40;99.90;;;;;;5039926;28;20450;-78
2022/05/29 08:02:11;;;;;;;1999.90;999.90;;;10.50;99.90;;;;;;5048339;28;20036;-80
2022/05/29 08:04:39;;;;;;;1999.90;999.90;;;10.60;99.90;;;;;;5061361;28;20071;-79
2022/05/29 08:07:05;;;;;;;1999.90;999.90;;;10.60;99.90;;;;;;5076018;28;20409;-80
2022/05/29 08:09:31;;;;;;;1999.90;999.90;;;10.60;99.90;;;;;;5052877;28;20048;-80
2022/05/29 08:11:57;;;;;;;1999.90;999.90;;;10.60;99.90;;;;;;5053853;28;20050;-80
2022/05/29 08:14:22;;;;;;;1999.90;999.90;;;10.50;99.90;;;;;;5056775;28;20055;-80
2022/05/29 08:16:48;;;;;;;1999.90;999.90;;;10.50;99.90;;;;;;5061724;28;20040;-81
2022/05/29 08:19:13;;;;;;;1999.90;999.90;;;10.40;99.90;;;;;;5069441;28;20323;-81
2022/05/29 08:21:40;;;;;;;1999.90;999.90;;;10.40;99.90;;;;;;5058441;28;20444;-81
2022/05/29 08:32:18;;;;;;;1999.90;999.90;;;10.40;99.90;;;;;;5072420;28;20044;-81
2022/05/29 08:34:43;;;;;;;1999.90;999.90;;;10.50;99.90;;;;;;5049070;28;20047;-81
2022/05/29 08:37:10;;;;;;;1999.90;999.90;;;10.70;99.90;;;;;;5070049;28;20044;-80
2022/05/29 08:39:36;;;;;;;1999.90;999.90;;;10.90;99.90;;;;;;5066204;28;20079;-81
2022/05/29 08:42:02;;;;;;;1999.90;999.90;;;11.10;99.90;;;;;;5060645;28;20079;-79
2022/05/29 08:44:40;;;;;;;1999.90;999.90;;;11.10;99.90;;;;;;5066058;28;20542;-81
2022/05/29 08:47:06;;;;;;;1999.90;999.90;;;11.10;99.90;;;;;;5068115;28;20044;-81
2022/05/29 08:49:38;;;;;;;1999.90;999.90;;;11.00;99.90;;;;;;5054736;28;20042;-81
2022/05/29 08:52:04;;;;;;;1999.90;999.90;;;10.90;99.90;;;;;;5059837;28;20469;-81
2022/05/29 08:54:50;;;;;;;1999.90;999.90;;;10.90;99.90;;;;;;5052317;28;20045;-81
2022/05/29 08:57:16;;;;;;;1999.90;999.90;;;10.90;99.90;;;;;;5055713;28;20048;-81
2022/05/29 08:59:57;;;;;;;1999.90;999.90;;;10.90;99.90;;;;;;5071209;28;20040;-80
2022/05/29 09:02:53;;;;;;;1999.90;999.90;;;10.80;99.90;;;;;;5067696;28;20041;-81
2022/05/29 09:05:45;;;;;;;1999.90;999.90;;;10.80;99.90;;;;;;5057231;28;20508;-81
2022/05/29 09:08:21;;;;;;;1999.90;999.90;;;10.90;99.90;;;;;;5053750;28;20048;-81
2022/05/29 09:10:52;;;;;;;1999.90;999.90;;;11.00;99.90;;;;;;5054154;28;20109;-81
2022/05/29 09:13:27;;;;;;;1999.90;999.90;;;11.20;99.90;;;;;;5067961;28;20047;-80
2022/05/29 09:15:58;;;;;;;1999.90;999.90;;;11.40;99.90;;;;;;5076401;28;20054;-80
2022/05/29 09:18:32;;;;;;;1999.90;999.90;;;11.70;99.90;;;;;;5058426;28;20140;-80
2022/05/29 09:21:17;;;;;;;1999.90;999.90;;;11.90;99.90;;;;;;5047038;28;20068;-81
2022/05/29 09:24:24;;;;;;;1999.90;999.90;;;11.90;99.90;;;;;;5062257;28;20061;-80
2022/05/29 09:26:50;;;;;;;1999.90;999.90;;;11.70;99.90;;;;;;4958419;28;20043;-81
2022/05/29 09:29:15;;;;;;;1999.90;999.90;;;11.60;99.90;;;;;;4958043;28;20038;-81
2022/05/29 09:31:41;;;;;;;1999.90;999.90;;;11.50;99.90;;;;;;4976748;28;20074;-79
2022/05/29 09:34:07;;;;;;;1999.90;999.90;;;11.40;99.90;;;;;;4959513;28;20145;-81
2022/05/29 09:36:50;;;;;;;1999.90;999.90;;;11.30;99.90;;;;;;4991226;28;20531;-80
2022/05/29 09:39:33;;;;;;;1999.90;999.90;;;11.20;99.90;;;;;;4976242;28;20534;-78
2022/05/29 09:42:17;;;;;;;1999.90;999.90;;;11.10;99.90;;;;;;4974913;28;20056;-81
2022/05/29 09:45:01;;;;;;;;;;;11.10;99.90;;;;;;4993702;28;20066;-80
2022/05/29 09:50:18;;;;;;;1999.90;999.90;;;11.20;99.90;;;;;;4972336;28;20042;-78
2022/05/29 09:52:45;;;;;;;1999.90;999.90;;;11.30;99.90;;;;;;4956183;28;20046;-80
2022/05/29 09:55:26;;;;;;;1999.90;999.90;;;11.50;99.90;;;;;;4971486;28;20046;-80
2022/05/29 09:57:58;;;;;;;1999.90;999.90;;;11.70;99.90;;;;;;5036545;28;20056;-81
2022/05/29 10:00:30;;;;;;;1999.90;999.90;;;11.90;99.90;;;;;;5042425;28;20040;-79
2022/05/29 10:02:56;;;;;;;1999.90;999.90;;;12.10;99.90;;;;;;5051125;28;20076;-81
2022/05/29 10:05:28;;;;;;;1999.90;999.90;;;12.40;99.90;;;;;;5049545;28;20040;-81
2022/05/29 10:08:31;;;;;;;1999.90;999.90;;;12.70;99.90;;;;;;5038450;28;20036;-80
2022/05/29 10:11:31;;;;;;;1999.90;999.90;;;12.90;99.90;;;;;;5048193;28;20040;-80
2022/05/29 10:14:00;;;;;;;1999.90;999.90;;;12.70;99.90;;;;;;5046295;28;20464;-80
2022/05/29 10:16:38;;;;;;;1999.90;999.90;;;12.40;99.90;;;;;;5068251;28;20045;-81
2022/05/29 10:19:09;;;;;;;1999.90;999.90;;;12.10;99.90;;;;;;5049307;28;20044;-81
2022/05/29 10:21:47;;;;;;;1999.90;999.90;;;12.00;99.90;;;;;;5078339;28;20397;-81
2022/05/29 10:24:37;;;;;;;1999.90;999.90;;;11.80;99.90;;;;;;5078429;28;20054;-79
2022/05/29 10:27:22;;;;;;;1999.90;999.90;;;11.80;99.90;;;;;;5053868;28;20047;-79
2022/05/29 10:30:02;;;;;;;1999.90;999.90;;;11.80;99.90;;;;;;5081122;28;20047;-80
2022/05/29 10:32:31;;;;;;;1999.90;999.90;;;11.80;99.90;;;;;;5039335;28;20047;-81
2022/05/29 10:35:23;;;;;;;1999.90;999.90;;;11.80;99.90;;;;;;5054666;28;20051;-81
2022/05/29 10:37:51;;;;;;;1999.90;999.90;;;12.00;99.90;;;;;;5068415;28;20084;-79
2022/05/29 10:40:28;;;;;;;1999.90;999.90;;;12.20;99.90;;;;;;5064431;28;20050;-81
2022/05/29 10:43:04;;;;;;;1999.90;999.90;;;12.40;99.90;;;;;;5056536;28;20044;-80
2022/05/29 10:45:46;;;;;;;1999.90;999.90;;;12.60;99.90;;;;;;5077028;28;20497;-81
2022/05/29 10:48:33;;;;;;;1999.90;999.90;;;12.80;99.90;;;;;;5044024;28;20086;-81
2022/05/29 10:51:20;;;;;;;1999.90;999.90;;;13.20;99.90;;;;;;5071633;28;20040;-80
2022/05/29 10:54:00;;;;;;;1999.90;999.90;;;13.40;99.90;;;;;;5039555;28;20047;-79
2022/05/29 10:56:41;;;;;;;1999.90;999.90;;;13.50;99.90;;;;;;5047875;28;20079;-80
2022/05/29 10:59:09;;;;;;;1999.90;999.90;;;13.30;99.90;;;;;;5056411;28;20040;-79
2022/05/29 11:05:07;;;;;;;1999.90;999.90;;;12.80;99.90;;;;;;5073345;28;20068;-80
2022/05/29 11:08:20;;;;;;;1999.90;999.90;;;12.40;99.90;;;;;;5059626;28;20032;-80
2022/05/29 11:11:13;;;;;;;1999.90;999.90;;;12.10;99.90;;;;;;5045085;28;20481;-80
2022/05/29 11:14:04;;;;;;;1999.90;999.90;;;11.90;99.90;;;;;;5048183;28;20047;-81
2022/05/29 11:17:05;;;;;;;1999.90;999.90;;;11.90;99.90;;;;;;5067693;28;20040;-78
2022/05/29 11:20:01;;;;;;;1999.90;999.90;;;12.10;99.90;;;;;;5073151;28;20067;-78
2022/05/29 11:22:39;;;;;;;1999.90;999.90;;;12.30;99.90;;;;;;5067634;28;20084;-80
2022/05/29 11:25:32;;;;;;;1999.90;999.90;;;12.60;99.90;;;;;;5062872;28;20052;-80
2022/05/29 11:28:06;;;;;;;;;;;12.80;99.90;;;;;;5060893;28;20040;-79
2022/05/29 11:30:58;;;;;;;1999.90;999.90;;;13.10;99.90;;;;;;5055366;28;19927;-79
2022/05/29 11:33:45;;;;;;;1999.90;999.90;;;13.20;99.90;;;;;;5058642;28;20129;-80
2022/05/29 11:36:16;;;;;;;1999.90;999.90;;;13.20;99.90;;;;;;5056913;28;20086;-81
2022/05/29 11:39:15;;;;;;;1999.90;999.90;;;13.20;99.90;;;;;;5060622;28;20066;-80
2022/05/29 11:42:01;;;;;;;1999.90;999.90;;;13.30;99.90;;;;;;5047523;28;20460;-79
2022/05/29 11:44:26;;;;;;;1999.90;999.90;;;13.40;99.90;;;;;;5059580;28;20040;-80
2022/05/29 11:53:04;;;;;;;1999.90;999.90;;;13.50;99.90;;;;;;5067386;28;20314;-80
2022/05/29 11:55:37;;;;;;;1999.90;999.90;;;13.40;99.90;;;;;;5066438;28;20035;-79
2022/05/29 11:58:35;;;;;;;1999.90;999.90;;;13.30;99.90;;;;;;5067763;28;20460;-80
2022/05/29 12:01:13;;;;;;;1999.90;999.90;;;13.20;99.90;;;;;;5032106;28;20059;-79
2022/05/29 12:03:44;;;;;;;1999.90;999.90;;;13.20;99.90;;;;;;5046627;28;20052;-79
2022/05/29 12:06:16;;;;;;;1999.90;999.90;;;13.20;99.90;;;;;;5062942;28;20508;-79
2022/05/29 12:09:18;;;;;;;1999.90;999.90;;;13.20;99.90;;;;;;5057767;28;20124;-79
2022/05/29 12:12:24;;;;;;;1999.90;999.90;;;13.20;99.90;;;;;;5041498;28;20047;-79
2022/05/29 12:14:58;;;;;;;1999.90;999.90;;;13.20;99.90;;;;;;5039948;28;20059;-80
2022/05/29 12:17:49;;;;;;;1999.90;999.90;;;13.20;99.90;;;;;;5045057;28;20067;-79
2022/05/29 12:20:37;;;;;;;1999.90;999.90;;;13.30;99.90;;;;;;5057738;28;20074;-80
2022/05/29 12:23:08;;;;;;;1999.90;999.90;;;13.30;99.90;;;;;;5039115;28;20040;-79
2022/05/29 12:25:42;;;;;;;1999.90;999.90;;;13.30;99.90;;;;;;5064064;28;20048;-79
2022/05/29 12:28:13;;;;;;;1999.90;999.90;;;13.40;99.90;;;;;;5042822;28;20051;-79
2022/05/29 12:30:42;;;;;;;1999.90;999.90;;;13.70;99.90;;;;;;5061818;28;20406;-78
2022/05/29 12:33:15;;;;;;;1999.90;999.90;;;13.80;99.90;;;;;;5061219;28;20032;-79
2022/05/29 12:35:52;;;;;;;1999.90;999.90;;;14.00;99.90;;;;;;5064471;28;20537;-80
2022/05/29 12:38:36;;;;;;;1999.90;999.90;;;13.90;99.90;;;;;;5064349;28;20516;-79
2022/05/29 12:41:26;;;;;;;1999.90;999.90;;;14.00;99.90;;;;;;5040272;28;20036;-79
2022/05/29 12:44:10;;;;;;;1999.90;999.90;;;14.00;99.90;;;;;;5053972;28;20047;-79
2022/05/29 12:47:13;;;;;;;1999.90;999.90;;;14.10;99.90;;;;;;5069488;28;20070;-78
2022/05/29 12:49:39;;;;;;;;;;;14.20;99.90;;;;;;5066044;28;20040;-79
2022/05/29 12:52:21;;;;;;;1999.90;999.90;;;14.10;99.90;;;;;;5050964;28;19920;-79
2022/05/29 12:55:13;;;;;;;1999.90;999.90;;;14.00;99.90;;;;;;5061797;28;20066;-79
2022/05/29 12:57:55;;;;;;;1999.90;999.90;;;14.00;99.90;;;;;;5049967;28;20059;-79
2022/05/29 13:00:33;;;;;;;1999.90;999.90;;;14.10;99.90;;;;;;5047310;28;20051;-78
2022/05/29 13:03:35;;;;;;;1999.90;999.90;;;14.00;99.90;;;;;;5066140;28;20048;-80
2022/05/29 13:06:33;;;;;;;1999.90;999.90;;;13.90;99.90;;;;;;5065137;28;20056;-79
2022/05/29 13:09:10;;;;;;;1999.90;999.90;;;13.70;99.90;;;;;;5038050;28;20300;-79
2022/05/29 13:11:38;;;;;;;1999.90;999.90;;;13.70;99.90;;;;;;5060802;28;20374;-78
2022/05/29 13:14:07;;;;;;;1999.90;999.90;;;13.70;99.90;;;;;;5060547;28;20123;-79
2022/05/29 13:16:35;;;;;;;1999.90;999.90;;;13.60;99.90;;;;;;5039428;28;20385;-80